Time;durP1;ratioP1;P1;durP2;ratioP2;P2;SDS_P1;SDS_P2;PMS_P1;PMS_P2;Temp;Humidity;BMP_temperature;BMP_pressure;BME280_temperature;BME280_humidity;BME280_pressure;Samples;Min_cycle;Max_cycle;Signal;HPM_P1;HPM_P2
2022/12/24 00:01:24;;;;;;;11.87;2.90;;;9.80;99.90;;;;;;462443;257;28089;-74
2022/12/24 00:03:25;;;;;;;14.93;3.00;;;9.80;99.90;;;;;;462469;257;27779;-74
2022/12/24 00:05:27;;;;;;;9.30;2.60;;;9.70;99.90;;;;;;462496;257;27762;-74
2022/12/24 00:07:28;;;;;;;11.70;3.40;;;9.70;99.90;;;;;;462440;257;27848;-74
2022/12/24 00:09:29;;;;;;;11.23;3.10;;;9.70;99.90;;;;;;462501;257;28618;-74
2022/12/24 00:11:30;;;;;;;9.23;2.63;;;9.60;99.90;;;;;;462457;257;29776;-74
2022/12/24 00:13:32;;;;;;;12.67;3.00;;;9.60;99.90;;;;;;462541;257;28342;-74
2022/12/24 00:15:33;;;;;;;7.63;2.60;;;9.50;99.90;;;;;;462508;257;28543;-73
2022/12/24 00:17:34;;;;;;;12.63;2.80;;;9.50;99.90;;;;;;462444;257;27789;-74
2022/12/24 00:19:35;;;;;;;13.03;2.90;;;9.50;99.90;;;;;;462405;257;27582;-74
2022/12/24 00:21:37;;;;;;;9.97;2.80;;;9.50;99.90;;;;;;462564;257;28378;-75
2022/12/24 00:23:38;;;;;;;15.03;2.73;;;9.40;99.90;;;;;;462458;257;28316;-74
2022/12/24 00:25:39;;;;;;;12.30;3.23;;;9.40;99.90;;;;;;462469;257;28546;-73
2022/12/24 00:27:40;;;;;;;22.20;3.40;;;9.40;99.90;;;;;;462446;257;28646;-74
2022/12/24 00:29:42;;;;;;;14.83;3.17;;;9.40;99.90;;;;;;462466;257;28194;-74
2022/12/24 00:31:43;;;;;;;8.37;2.20;;;9.40;99.90;;;;;;462504;257;27938;-75
2022/12/24 00:33:44;;;;;;;15.17;4.13;;;9.40;99.90;;;;;;462488;257;27898;-73
2022/12/24 00:35:45;;;;;;;18.57;3.70;;;9.30;99.90;;;;;;462483;257;27922;-74
2022/12/24 00:37:47;;;;;;;14.57;3.40;;;9.30;99.90;;;;;;462494;257;27845;-74
2022/12/24 00:39:48;;;;;;;12.93;3.37;;;9.30;99.90;;;;;;462480;257;28192;-74
2022/12/24 00:41:49;;;;;;;11.33;3.07;;;9.20;99.90;;;;;;462507;257;27962;-74
2022/12/24 00:43:50;;;;;;;11.17;2.90;;;9.20;99.90;;;;;;462496;257;28041;-74
2022/12/24 00:45:52;;;;;;;19.37;3.43;;;9.20;99.90;;;;;;462581;257;28050;-74
2022/12/24 00:47:53;;;;;;;10.00;2.83;;;9.20;99.90;;;;;;462579;257;28484;-74
2022/12/24 00:49:54;;;;;;;8.77;3.27;;;9.10;99.90;;;;;;462513;257;28551;-74
2022/12/24 00:51:55;;;;;;;11.30;3.10;;;9.10;99.90;;;;;;462557;257;28652;-74
2022/12/24 00:53:57;;;;;;;8.93;2.60;;;9.20;99.90;;;;;;462577;257;28366;-75
2022/12/24 00:55:58;;;;;;;14.50;2.80;;;9.20;99.90;;;;;;462551;257;28552;-74
2022/12/24 00:57:59;;;;;;;12.87;2.70;;;9.20;99.90;;;;;;462620;257;28033;-74
2022/12/24 01:00:00;;;;;;;16.07;3.47;;;9.30;99.90;;;;;;462537;257;28022;-75
2022/12/24 01:02:02;;;;;;;15.83;3.20;;;9.30;99.90;;;;;;462593;257;27929;-74
2022/12/24 01:06:23;;;;;;;9.80;2.90;;;9.20;99.90;;;;;;462541;257;28449;-74
2022/12/24 01:08:24;;;;;;;10.20;3.30;;;9.20;99.90;;;;;;462523;257;28427;-75
2022/12/24 01:10:25;;;;;;;16.43;2.87;;;9.20;99.90;;;;;;462544;257;28580;-74
2022/12/24 01:12:26;;;;;;;12.90;3.13;;;9.10;99.90;;;;;;462599;257;27940;-74
2022/12/24 01:14:28;;;;;;;13.33;3.33;;;9.10;99.90;;;;;;462564;257;28082;-73
2022/12/24 01:16:29;;;;;;;14.57;3.17;;;9.10;99.90;;;;;;462589;257;28032;-73
2022/12/24 01:18:30;;;;;;;14.07;3.03;;;9.00;99.90;;;;;;462593;257;28258;-74
2022/12/24 01:20:32;;;;;;;8.57;2.50;;;9.00;99.90;;;;;;462536;257;28065;-74
2022/12/24 01:22:33;;;;;;;14.70;3.33;;;9.00;99.90;;;;;;462508;257;28031;-74
2022/12/24 01:24:34;;;;;;;14.30;3.53;;;9.00;99.90;;;;;;462461;257;28051;-73
2022/12/24 01:26:35;;;;;;;13.83;2.87;;;8.90;99.90;;;;;;462485;257;27924;-75
2022/12/24 01:28:36;;;;;;;16.93;3.30;;;8.90;99.90;;;;;;457823;257;27655;-74
2022/12/24 01:30:38;;;;;;;16.80;3.23;;;8.90;99.90;;;;;;466135;255;28057;-74
2022/12/24 01:32:39;;;;;;;11.73;2.83;;;8.90;99.90;;;;;;466154;255;28621;-73
2022/12/24 01:34:40;;;;;;;10.00;3.00;;;8.90;99.90;;;;;;466192;255;28502;-74
2022/12/24 01:36:42;;;;;;;13.27;3.00;;;8.90;99.90;;;;;;466159;255;28613;-74
2022/12/24 01:38:43;;;;;;;11.63;3.47;;;8.90;99.90;;;;;;466213;255;27944;-74
2022/12/24 01:45:14;;;;;;;14.63;3.20;;;9.00;99.90;;;;;;455110;259;27996;-75
2022/12/24 01:47:16;;;;;;;7.10;3.40;;;9.00;99.90;;;;;;466053;255;27873;-74
2022/12/24 01:49:17;;;;;;;17.93;4.60;;;9.10;99.90;;;;;;466162;255;27624;-74
2022/12/24 01:51:18;;;;;;;10.53;3.40;;;9.10;99.90;;;;;;466126;255;28155;-72
2022/12/24 01:53:19;;;;;;;11.30;3.07;;;9.10;99.90;;;;;;466151;255;28567;-74
2022/12/24 01:55:20;;;;;;;12.77;2.80;;;9.10;99.90;;;;;;466184;255;28351;-74
2022/12/24 01:57:22;;;;;;;8.23;3.30;;;9.00;99.90;;;;;;466194;255;28317;-74
2022/12/24 01:59:23;;;;;;;14.13;2.80;;;9.00;99.90;;;;;;466227;255;28704;-73
2022/12/24 02:01:24;;;;;;;16.03;3.50;;;9.10;99.90;;;;;;466146;255;28160;-74
2022/12/24 02:03:25;;;;;;;9.63;3.30;;;9.20;99.90;;;;;;466197;255;27962;-74
2022/12/24 02:05:27;;;;;;;18.53;3.40;;;9.20;99.90;;;;;;465960;255;28034;-75
2022/12/24 02:07:28;;;;;;;10.67;4.23;;;9.20;99.90;;;;;;466182;255;27912;-74
2022/12/24 02:09:29;;;;;;;13.23;3.30;;;9.30;99.90;;;;;;466198;255;28042;-75
2022/12/24 02:11:30;;;;;;;17.80;3.73;;;9.30;99.90;;;;;;466154;255;27598;-75
2022/12/24 02:13:32;;;;;;;11.40;3.50;;;9.30;99.90;;;;;;466183;255;28093;-75
2022/12/24 02:15:33;;;;;;;13.10;2.97;;;9.40;99.90;;;;;;466131;255;28150;-74
2022/12/24 02:17:34;;;;;;;11.80;3.13;;;9.40;99.90;;;;;;466136;255;27719;-74
2022/12/24 02:19:35;;;;;;;11.20;3.03;;;9.30;99.90;;;;;;466169;255;28619;-73
2022/12/24 02:21:37;;;;;;;18.03;3.47;;;9.40;99.90;;;;;;466168;255;28503;-74
2022/12/24 02:23:38;;;;;;;9.30;3.43;;;9.30;99.90;;;;;;466073;255;28481;-73
2022/12/24 02:25:39;;;;;;;13.33;3.10;;;9.30;99.90;;;;;;466176;255;28528;-74
2022/12/24 02:27:40;;;;;;;12.50;3.20;;;9.30;99.90;;;;;;466145;255;28155;-75
2022/12/24 02:29:42;;;;;;;18.93;3.47;;;9.30;99.90;;;;;;466045;255;27907;-74
2022/12/24 02:31:43;;;;;;;10.97;3.00;;;9.40;99.90;;;;;;466096;255;27876;-75
2022/12/24 02:33:44;;;;;;;12.70;3.47;;;9.40;99.90;;;;;;466075;255;28042;-74
2022/12/24 02:35:45;;;;;;;20.33;3.50;;;9.40;99.90;;;;;;466119;255;27823;-74
2022/12/24 02:37:47;;;;;;;17.40;4.20;;;9.40;99.90;;;;;;466165;255;28129;-73
2022/12/24 02:39:48;;;;;;;8.77;3.30;;;9.40;99.90;;;;;;466148;255;28160;-74
2022/12/24 02:42:05;;;;;;;16.20;3.70;;;9.40;99.90;;;;;;466176;255;27938;-74
2022/12/24 02:44:06;;;;;;;20.27;3.93;;;9.30;99.90;;;;;;466162;255;27906;-74
2022/12/24 02:46:07;;;;;;;9.37;2.67;;;9.30;99.90;;;;;;466165;255;28271;-74
2022/12/24 02:48:08;;;;;;;15.67;3.20;;;9.20;99.90;;;;;;466161;255;28027;-72
2022/12/24 02:50:10;;;;;;;16.33;3.80;;;9.20;99.90;;;;;;466213;255;28159;-74
2022/12/24 02:52:11;;;;;;;10.73;3.17;;;9.10;99.90;;;;;;466210;255;28052;-74
2022/12/24 02:54:12;;;;;;;17.83;3.70;;;9.10;99.90;;;;;;466216;255;28137;-74
2022/12/24 02:56:13;;;;;;;16.50;4.23;;;9.10;99.90;;;;;;466164;255;27950;-74
2022/12/24 02:58:15;;;;;;;20.40;3.77;;;9.10;99.90;;;;;;466232;255;28172;-73
2022/12/24 03:00:16;;;;;;;15.27;3.33;;;9.00;99.90;;;;;;466128;255;27768;-73
2022/12/24 03:02:18;;;;;;;12.53;3.00;;;9.00;99.90;;;;;;466067;255;28663;-74
2022/12/24 03:04:18;;;;;;;12.77;3.57;;;9.00;99.90;;;;;;466094;255;28461;-74
2022/12/24 03:06:20;;;;;;;13.50;3.43;;;9.00;99.90;;;;;;466201;255;28734;-73
2022/12/24 03:08:21;;;;;;;14.87;3.60;;;9.00;99.90;;;;;;466206;255;27811;-74
2022/12/24 03:10:22;;;;;;;16.23;4.33;;;9.00;99.90;;;;;;466163;255;27654;-73
2022/12/24 03:12:23;;;;;;;17.43;2.77;;;9.00;99.90;;;;;;466146;255;27923;-74
2022/12/24 03:14:25;;;;;;;19.10;4.00;;;9.00;99.90;;;;;;466189;255;28081;-74
2022/12/24 03:16:26;;;;;;;11.77;3.20;;;9.00;99.90;;;;;;466186;255;27960;-74
2022/12/24 03:18:27;;;;;;;16.53;3.37;;;9.00;99.90;;;;;;466149;255;28066;-74
2022/12/24 03:20:28;;;;;;;17.93;4.10;;;9.10;99.90;;;;;;466123;255;28045;-73
2022/12/24 03:22:30;;;;;;;16.60;3.63;;;9.00;99.90;;;;;;466175;255;28015;-73
2022/12/24 03:24:31;;;;;;;17.30;4.33;;;9.10;99.90;;;;;;466168;255;27932;-74
2022/12/24 03:26:32;;;;;;;22.33;4.13;;;9.20;99.90;;;;;;466215;255;28554;-73
2022/12/24 03:28:33;;;;;;;15.00;3.70;;;9.20;99.90;;;;;;466092;255;28269;-74
2022/12/24 03:30:35;;;;;;;26.13;4.90;;;9.30;99.90;;;;;;466133;255;28588;-73
2022/12/24 03:32:36;;;;;;;13.23;3.40;;;9.30;99.90;;;;;;466156;255;28146;-74
2022/12/24 03:34:37;;;;;;;15.63;3.63;;;9.30;99.90;;;;;;466135;255;28009;-73
2022/12/24 03:36:38;;;;;;;14.17;3.37;;;9.30;99.90;;;;;;466109;255;28038;-74
2022/12/24 03:38:40;;;;;;;24.33;4.97;;;9.40;99.90;;;;;;466150;255;28052;-74
2022/12/24 03:40:41;;;;;;;18.23;4.27;;;9.30;99.90;;;;;;466116;255;27914;-75
2022/12/24 03:42:42;;;;;;;12.13;4.00;;;9.40;99.90;;;;;;466151;255;28066;-74
2022/12/24 03:44:43;;;;;;;11.13;3.70;;;9.40;99.90;;;;;;466130;255;28056;-74
2022/12/24 03:46:45;;;;;;;17.83;3.70;;;9.40;99.90;;;;;;466121;255;28107;-74
2022/12/24 03:48:46;;;;;;;14.67;3.80;;;9.40;99.90;;;;;;466157;255;27830;-74
2022/12/24 03:50:47;;;;;;;19.30;4.23;;;9.40;99.90;;;;;;466062;255;28513;-73
2022/12/24 03:52:48;;;;;;;24.40;5.03;;;9.40;99.90;;;;;;466135;255;28601;-74
2022/12/24 03:54:50;;;;;;;23.77;4.70;;;9.40;99.90;;;;;;466161;255;28596;-74
2022/12/24 03:56:51;;;;;;;23.73;5.07;;;9.40;99.90;;;;;;466148;255;28495;-75
2022/12/24 03:58:52;;;;;;;29.77;5.47;;;9.40;99.90;;;;;;466150;255;27942;-75
2022/12/24 04:00:53;;;;;;;18.47;4.40;;;9.40;99.90;;;;;;466144;255;27671;-75
2022/12/24 04:02:55;;;;;;;15.30;4.53;;;9.40;99.90;;;;;;466156;255;28084;-73
2022/12/24 04:04:56;;;;;;;24.03;4.83;;;9.40;99.90;;;;;;466165;255;28165;-74
2022/12/24 04:06:57;;;;;;;25.97;5.53;;;9.40;99.90;;;;;;466160;255;27811;-75
2022/12/24 04:09:00;;;;;;;16.00;4.30;;;9.50;99.90;;;;;;466149;255;28099;-73
2022/12/24 04:11:00;;;;;;;27.37;5.10;;;9.50;99.90;;;;;;466051;255;28047;-73
2022/12/24 04:13:01;;;;;;;28.83;6.47;;;9.50;99.90;;;;;;466145;255;27941;-73
2022/12/24 04:15:02;;;;;;;24.27;5.50;;;9.50;99.90;;;;;;466156;255;28003;-74
2022/12/24 04:17:03;;;;;;;30.10;5.20;;;9.50;99.90;;;;;;466111;255;28599;-74
2022/12/24 04:19:05;;;;;;;20.73;4.13;;;9.50;99.90;;;;;;466196;255;28561;-74
2022/12/24 04:21:06;;;;;;;14.33;3.93;;;9.50;99.90;;;;;;466177;255;28140;-73
2022/12/24 04:23:07;;;;;;;27.53;4.97;;;9.50;99.90;;;;;;466188;255;28071;-74
2022/12/24 04:25:08;;;;;;;19.80;4.57;;;9.40;99.90;;;;;;466157;255;28267;-73
2022/12/24 04:27:10;;;;;;;20.70;4.73;;;9.50;99.90;;;;;;466139;255;28121;-73
2022/12/24 04:29:11;;;;;;;30.27;5.00;;;9.50;99.90;;;;;;466242;255;27843;-73
2022/12/24 04:31:12;;;;;;;16.77;4.73;;;9.50;99.90;;;;;;466208;255;28046;-73
2022/12/24 04:33:13;;;;;;;22.17;4.97;;;9.50;99.90;;;;;;466170;255;28186;-74
2022/12/24 04:35:15;;;;;;;19.60;4.30;;;9.50;99.90;;;;;;466162;255;28033;-73
2022/12/24 04:37:16;;;;;;;22.50;6.03;;;9.40;99.90;;;;;;466147;255;28500;-73
2022/12/24 04:39:17;;;;;;;17.97;4.30;;;9.50;99.90;;;;;;466190;255;28507;-74
2022/12/24 04:41:18;;;;;;;10.63;4.30;;;9.50;99.90;;;;;;466165;255;28548;-74
2022/12/24 04:43:20;;;;;;;27.50;5.03;;;9.50;99.90;;;;;;466140;255;28083;-74
2022/12/24 04:45:21;;;;;;;16.90;4.23;;;9.50;99.90;;;;;;466195;255;28018;-74
2022/12/24 04:47:22;;;;;;;25.40;5.53;;;9.50;99.90;;;;;;466224;255;28268;-75
2022/12/24 04:49:23;;;;;;;17.53;4.30;;;9.50;99.90;;;;;;466169;255;27675;-74
2022/12/24 04:51:25;;;;;;;19.67;4.63;;;9.40;99.90;;;;;;466214;255;28063;-74
2022/12/24 04:53:26;;;;;;;23.10;4.97;;;9.50;99.90;;;;;;466189;255;27969;-74
2022/12/24 04:55:27;;;;;;;18.60;4.37;;;9.40;99.90;;;;;;466171;255;28004;-74
2022/12/24 04:57:28;;;;;;;21.40;4.60;;;9.40;99.90;;;;;;466183;255;28122;-74
2022/12/24 04:59:30;;;;;;;19.77;4.37;;;9.40;99.90;;;;;;466175;255;28063;-74
2022/12/24 05:01:31;;;;;;;24.93;4.87;;;9.40;99.90;;;;;;466218;255;28652;-74
2022/12/24 05:03:32;;;;;;;20.37;4.57;;;9.50;99.90;;;;;;466155;255;28440;-74
2022/12/24 05:05:33;;;;;;;20.53;4.40;;;9.50;99.90;;;;;;466136;255;28512;-73
2022/12/24 05:07:35;;;;;;;19.27;4.40;;;9.50;99.90;;;;;;466215;255;28664;-75
2022/12/24 05:09:36;;;;;;;19.17;4.50;;;9.50;99.90;;;;;;466151;255;27948;-75
2022/12/24 05:11:37;;;;;;;20.63;3.93;;;9.50;99.90;;;;;;466156;255;27878;-74
2022/12/24 05:13:38;;;;;;;18.67;3.93;;;9.50;99.90;;;;;;466157;255;28270;-74
2022/12/24 05:15:40;;;;;;;17.90;4.20;;;9.50;99.90;;;;;;466134;255;28034;-73
2022/12/24 05:17:41;;;;;;;23.03;5.03;;;9.50;99.90;;;;;;466220;254;28166;-74
2022/12/24 05:19:42;;;;;;;20.83;4.60;;;9.40;99.90;;;;;;466174;255;28438;-74
2022/12/24 05:26:20;;;;;;;27.90;5.47;;;9.50;99.90;;;;;;466209;255;28128;-74
2022/12/24 05:26:23;;;;;;;21.97;5.30;;;9.50;99.90;;;;;;466153;255;28210;-74
2022/12/24 05:28:24;;;;;;;24.77;5.07;;;9.50;99.90;;;;;;466158;255;27671;-74
2022/12/24 05:30:25;;;;;;;23.13;5.27;;;9.50;99.90;;;;;;466129;255;27722;-74
2022/12/24 05:32:27;;;;;;;26.13;4.77;;;9.50;99.90;;;;;;466081;255;27991;-74
2022/12/24 05:34:28;;;;;;;27.53;5.00;;;9.50;99.90;;;;;;466145;255;27678;-74
2022/12/24 05:36:29;;;;;;;23.53;5.33;;;9.50;99.90;;;;;;466112;255;27790;-74
2022/12/24 05:38:30;;;;;;;20.40;4.33;;;9.50;99.90;;;;;;466140;255;27660;-73
2022/12/24 05:40:31;;;;;;;28.13;5.13;;;9.50;99.90;;;;;;466142;255;28072;-73
2022/12/24 05:42:33;;;;;;;16.70;4.60;;;9.50;99.90;;;;;;466166;255;29191;-73
2022/12/24 05:44:34;;;;;;;22.70;5.10;;;9.50;99.90;;;;;;466138;255;28453;-73
2022/12/24 05:46:35;;;;;;;24.90;4.23;;;9.50;99.90;;;;;;466138;255;28589;-74
2022/12/24 05:48:36;;;;;;;14.50;3.80;;;9.50;99.90;;;;;;466231;255;28012;-74
2022/12/24 05:50:38;;;;;;;23.20;4.20;;;9.50;99.90;;;;;;466189;255;28086;-74
2022/12/24 05:52:39;;;;;;;32.73;5.27;;;9.40;99.90;;;;;;466213;255;28148;-75
2022/12/24 05:54:40;;;;;;;10.90;3.73;;;9.50;99.90;;;;;;466189;255;27795;-75
2022/12/24 05:56:41;;;;;;;23.30;4.80;;;9.50;99.90;;;;;;466193;255;28101;-74
2022/12/24 05:58:43;;;;;;;18.93;3.63;;;9.50;99.90;;;;;;466160;255;28128;-74
2022/12/24 06:00:44;;;;;;;21.63;5.07;;;9.50;99.90;;;;;;466167;255;27718;-73
2022/12/24 06:02:45;;;;;;;20.03;4.27;;;9.50;99.90;;;;;;466143;255;28158;-74
2022/12/24 06:04:46;;;;;;;18.50;4.40;;;9.50;99.90;;;;;;466118;255;28083;-74
2022/12/24 06:06:48;;;;;;;25.43;5.13;;;9.40;99.90;;;;;;466131;255;28249;-74
2022/12/24 06:08:49;;;;;;;22.33;5.43;;;9.40;99.90;;;;;;466146;255;28522;-73
2022/12/24 06:10:50;;;;;;;17.93;4.07;;;9.40;99.90;;;;;;466137;255;28056;-74
2022/12/24 06:12:51;;;;;;;25.07;4.70;;;9.50;99.90;;;;;;466193;255;27789;-74
2022/12/24 06:14:53;;;;;;;23.13;4.07;;;9.40;99.90;;;;;;466180;255;27948;-74
2022/12/24 06:16:54;;;;;;;20.77;4.60;;;9.40;99.90;;;;;;466172;255;27944;-74
2022/12/24 06:18:55;;;;;;;21.10;4.37;;;9.40;99.90;;;;;;466185;255;28079;-74
2022/12/24 06:20:56;;;;;;;22.53;4.97;;;9.40;99.90;;;;;;466146;255;28019;-73
2022/12/24 06:22:58;;;;;;;22.50;5.23;;;9.40;99.90;;;;;;466129;255;28185;-73
2022/12/24 06:24:59;;;;;;;20.40;4.27;;;9.40;99.90;;;;;;466135;255;28189;-73
2022/12/24 06:27:00;;;;;;;21.70;4.40;;;9.40;99.90;;;;;;466191;255;27726;-73
2022/12/24 06:29:01;;;;;;;27.87;5.73;;;9.40;99.90;;;;;;466122;255;28088;-73
2022/12/24 06:31:03;;;;;;;29.00;5.43;;;9.30;99.90;;;;;;466150;255;28556;-72
2022/12/24 06:33:04;;;;;;;29.30;6.30;;;9.40;99.90;;;;;;466146;255;28419;-73
2022/12/24 06:35:05;;;;;;;30.07;5.97;;;9.30;99.90;;;;;;466141;255;28669;-73
2022/12/24 06:37:06;;;;;;;34.40;5.67;;;9.30;99.90;;;;;;466164;255;28559;-72
2022/12/24 06:39:08;;;;;;;42.23;6.50;;;9.30;99.90;;;;;;466145;255;27802;-73
2022/12/24 06:41:09;;;;;;;22.70;4.50;;;9.30;99.90;;;;;;466191;255;27904;-73
2022/12/24 06:43:11;;;;;;;31.90;5.40;;;9.20;99.90;;;;;;466187;255;28044;-73
2022/12/24 06:45:11;;;;;;;31.77;6.20;;;9.20;99.90;;;;;;466182;255;27996;-73
2022/12/24 06:47:13;;;;;;;18.03;4.87;;;9.20;99.90;;;;;;466216;255;27914;-73
2022/12/24 06:49:14;;;;;;;28.03;5.60;;;9.20;99.90;;;;;;466174;255;28156;-73
2022/12/24 06:51:15;;;;;;;29.17;5.00;;;9.20;99.90;;;;;;466136;255;28064;-73
2022/12/24 06:53:16;;;;;;;25.33;5.57;;;9.20;99.90;;;;;;464078;252;28017;-73
2022/12/24 06:55:18;;;;;;;29.80;5.50;;;9.20;99.90;;;;;;463847;256;27846;-73
2022/12/24 06:57:19;;;;;;;16.73;4.33;;;9.20;99.90;;;;;;463872;256;28450;-73
2022/12/24 06:59:20;;;;;;;17.47;4.23;;;9.10;99.90;;;;;;463822;256;28402;-73
2022/12/24 07:01:23;;;;;;;16.23;4.07;;;9.20;99.90;;;;;;463862;256;28542;-73
2022/12/24 07:03:23;;;;;;;19.30;4.80;;;9.20;99.90;;;;;;463808;256;27557;-74
2022/12/24 07:05:24;;;;;;;22.47;4.97;;;9.20;99.90;;;;;;463787;256;28090;-74
2022/12/24 07:07:25;;;;;;;29.10;5.87;;;9.20;99.90;;;;;;463889;256;27980;-73
2022/12/24 07:09:26;;;;;;;27.60;5.40;;;9.20;99.90;;;;;;463870;256;27829;-73
2022/12/24 07:11:28;;;;;;;36.37;5.43;;;9.20;99.90;;;;;;463861;256;27861;-73
2022/12/24 07:13:30;;;;;;;36.53;6.50;;;9.20;99.90;;;;;;463877;256;28070;-73
2022/12/24 07:15:30;;;;;;;24.90;5.27;;;9.20;99.90;;;;;;463730;256;27977;-74
2022/12/24 07:17:31;;;;;;;28.80;5.90;;;9.10;99.90;;;;;;463837;256;28434;-74
2022/12/24 07:19:33;;;;;;;36.70;6.53;;;9.10;99.90;;;;;;463844;256;28050;-74
2022/12/24 07:21:34;;;;;;;44.13;6.03;;;9.10;99.90;;;;;;463808;256;28535;-74
2022/12/24 07:23:35;;;;;;;35.13;6.30;;;9.00;99.90;;;;;;463851;256;28561;-74
2022/12/24 07:25:36;;;;;;;26.13;6.07;;;9.00;99.90;;;;;;463842;256;28525;-73
2022/12/24 07:27:38;;;;;;;31.77;5.63;;;9.00;99.90;;;;;;463868;256;28584;-73
2022/12/24 07:29:40;;;;;;;31.17;5.63;;;8.90;99.90;;;;;;463887;256;27938;-72
2022/12/24 07:31:40;;;;;;;20.80;4.83;;;9.00;99.90;;;;;;461955;256;47431;-73
2022/12/24 07:33:41;;;;;;;21.13;4.53;;;9.00;99.90;;;;;;463818;256;29014;-73
2022/12/24 07:35:43;;;;;;;29.40;4.57;;;9.00;99.90;;;;;;463857;256;28105;-73
2022/12/24 07:37:44;;;;;;;23.63;5.30;;;9.00;99.90;;;;;;463646;256;28652;-77
2022/12/24 07:39:45;;;;;;;30.60;5.90;;;9.00;99.90;;;;;;463816;256;27854;-77
2022/12/24 07:41:47;;;;;;;21.47;4.30;;;9.10;99.90;;;;;;464112;256;27488;-77
2022/12/24 07:43:48;;;;;;;20.90;4.57;;;9.20;99.90;;;;;;463755;256;27705;-77
2022/12/24 07:45:49;;;;;;;20.27;5.27;;;9.20;99.90;;;;;;463776;256;28048;-77
2022/12/24 07:47:50;;;;;;;22.17;4.87;;;9.20;99.90;;;;;;463824;256;28093;-78
2022/12/24 07:49:51;;;;;;;26.57;4.47;;;9.20;99.90;;;;;;463852;256;28310;-75
2022/12/24 07:51:53;;;;;;;31.17;5.50;;;9.20;99.90;;;;;;463893;256;27955;-78
2022/12/24 07:53:54;;;;;;;17.53;4.23;;;9.30;99.90;;;;;;463886;256;27799;-76
2022/12/24 07:55:55;;;;;;;30.37;5.50;;;9.20;99.90;;;;;;463880;256;28035;-78
2022/12/24 07:57:56;;;;;;;25.47;5.40;;;9.30;99.90;;;;;;463879;256;27856;-77
2022/12/24 07:59:58;;;;;;;15.53;3.90;;;9.30;99.90;;;;;;463798;256;28450;-78
2022/12/24 08:01:59;;;;;;;25.73;5.33;;;9.30;99.90;;;;;;463839;256;28359;-77
2022/12/24 08:04:00;;;;;;;31.53;5.33;;;9.30;99.90;;;;;;463827;256;28520;-77
2022/12/24 08:06:01;;;;;;;26.13;4.93;;;9.40;99.90;;;;;;463822;256;27953;-77
2022/12/24 08:08:03;;;;;;;26.33;4.90;;;9.40;99.90;;;;;;463880;256;28005;-76
2022/12/24 08:10:04;;;;;;;32.10;4.70;;;9.40;99.90;;;;;;463813;256;27974;-77
2022/12/24 08:12:05;;;;;;;37.83;7.63;;;9.40;99.90;;;;;;463805;256;28011;-78
2022/12/24 08:14:06;;;;;;;37.87;7.10;;;9.40;99.90;;;;;;463821;256;28000;-75
2022/12/24 08:16:08;;;;;;;27.80;4.80;;;9.40;99.90;;;;;;463779;256;28167;-76
2022/12/24 08:18:09;;;;;;;17.10;4.70;;;9.40;99.90;;;;;;464027;256;28473;-79
2022/12/24 08:20:10;;;;;;;18.83;5.10;;;9.40;99.90;;;;;;463917;256;28266;-78
2022/12/24 08:22:12;;;;;;;32.80;9.43;;;9.40;99.90;;;;;;463865;256;28535;-77
2022/12/24 08:24:13;;;;;;;24.53;4.80;;;9.40;99.90;;;;;;463824;256;28415;-78
2022/12/24 08:26:14;;;;;;;31.70;6.33;;;9.50;99.90;;;;;;463833;256;28524;-76
2022/12/24 08:28:15;;;;;;;22.63;6.30;;;9.50;99.90;;;;;;463820;256;28006;-77
2022/12/24 08:30:17;;;;;;;33.43;5.60;;;9.50;99.90;;;;;;463850;256;27648;-79
2022/12/24 08:32:18;;;;;;;28.90;6.23;;;9.60;99.90;;;;;;463903;256;28005;-77
2022/12/24 08:34:19;;;;;;;18.90;5.00;;;9.60;99.90;;;;;;463881;256;28026;-79
2022/12/24 08:36:21;;;;;;;29.30;6.33;;;9.60;99.90;;;;;;463863;256;28446;-77
2022/12/24 08:38:22;;;;;;;34.83;6.13;;;9.60;99.90;;;;;;463873;256;28329;-78
2022/12/24 08:40:23;;;;;;;24.93;7.80;;;9.60;99.90;;;;;;463916;256;28431;-78
2022/12/24 08:42:25;;;;;;;23.13;5.27;;;9.60;99.90;;;;;;463821;256;28131;-78
2022/12/24 08:44:27;;;;;;;20.97;5.30;;;9.60;99.90;;;;;;463773;256;28087;-78
2022/12/24 08:46:29;;;;;;;30.70;5.60;;;9.60;99.90;;;;;;463770;256;28568;-77
2022/12/24 08:48:30;;;;;;;20.43;4.63;;;9.60;99.90;;;;;;463790;256;28085;-77
2022/12/24 08:50:32;;;;;;;27.37;4.70;;;9.60;99.90;;;;;;463777;256;28477;-78
2022/12/24 08:52:33;;;;;;;24.00;4.80;;;9.60;99.90;;;;;;463864;256;28274;-76
2022/12/24 08:54:34;;;;;;;18.63;5.20;;;9.60;99.90;;;;;;463810;256;28072;-77
2022/12/24 08:56:35;;;;;;;26.93;5.40;;;9.70;99.90;;;;;;463784;256;28088;-77
2022/12/24 08:58:37;;;;;;;26.27;5.47;;;9.70;99.90;;;;;;463820;256;27823;-77
2022/12/24 09:00:38;;;;;;;23.73;4.90;;;9.80;99.90;;;;;;463817;256;28072;-78
2022/12/24 09:02:39;;;;;;;15.83;4.00;;;9.80;99.90;;;;;;463842;256;27945;-77
2022/12/24 09:04:40;;;;;;;15.00;4.30;;;9.80;99.90;;;;;;463856;256;28007;-78
2022/12/24 09:06:42;;;;;;;23.10;4.70;;;9.80;99.90;;;;;;463751;256;28045;-78
2022/12/24 09:08:43;;;;;;;25.37;6.17;;;9.80;99.90;;;;;;463859;256;28411;-78
2022/12/24 09:10:44;;;;;;;31.70;5.70;;;9.80;99.90;;;;;;463721;256;28400;-78
2022/12/24 09:12:46;;;;;;;22.33;5.50;;;9.80;99.90;;;;;;463810;256;28072;-78
2022/12/24 09:14:47;;;;;;;18.83;4.43;;;9.80;99.90;;;;;;463509;256;27619;-77
2022/12/24 09:16:48;;;;;;;14.00;5.10;;;9.80;99.90;;;;;;463810;256;27976;-78
2022/12/24 09:18:49;;;;;;;31.03;5.97;;;9.80;99.90;;;;;;463838;256;27947;-78
2022/12/24 09:20:50;;;;;;;21.43;6.30;;;9.80;99.90;;;;;;463860;256;27914;-78
2022/12/24 09:22:52;;;;;;;23.30;4.90;;;9.80;99.90;;;;;;463817;256;27873;-78
2022/12/24 09:24:53;;;;;;;19.63;4.63;;;9.80;99.90;;;;;;463715;256;27970;-76
2022/12/24 09:26:54;;;;;;;27.80;5.23;;;9.80;99.90;;;;;;463839;256;27983;-78
2022/12/24 09:28:55;;;;;;;22.33;5.03;;;9.80;99.90;;;;;;463868;256;27823;-76
2022/12/24 09:30:57;;;;;;;20.57;4.67;;;9.80;99.90;;;;;;463887;256;28009;-79
2022/12/24 09:32:58;;;;;;;23.73;5.50;;;9.80;99.90;;;;;;463901;256;27956;-77
2022/12/24 09:34:59;;;;;;;21.80;5.00;;;9.90;99.90;;;;;;463823;256;28426;-76
2022/12/24 09:37:01;;;;;;;18.50;5.00;;;9.80;99.90;;;;;;463727;256;29396;-78
2022/12/24 09:39:02;;;;;;;23.43;5.07;;;9.90;99.90;;;;;;463746;256;28505;-78
2022/12/24 09:41:03;;;;;;;27.77;5.07;;;9.90;99.90;;;;;;463734;256;28338;-77
2022/12/24 09:43:05;;;;;;;29.20;4.67;;;9.90;99.90;;;;;;463806;256;28043;-79
2022/12/24 09:45:06;;;;;;;23.07;5.00;;;9.90;99.90;;;;;;463799;256;28559;-78
2022/12/24 09:47:07;;;;;;;23.20;5.80;;;9.90;99.90;;;;;;463787;256;28505;-78
2022/12/24 09:49:08;;;;;;;24.80;5.00;;;9.90;99.90;;;;;;463783;256;27940;-79
2022/12/24 09:51:10;;;;;;;18.70;4.80;;;10.00;99.90;;;;;;463869;256;28124;-79
2022/12/24 09:53:11;;;;;;;22.73;4.87;;;10.00;99.90;;;;;;463716;256;28041;-79
2022/12/24 09:55:12;;;;;;;25.20;5.90;;;10.00;99.90;;;;;;463811;255;27857;-76
2022/12/24 09:57:13;;;;;;;19.20;4.97;;;10.00;99.90;;;;;;463811;256;28575;-80
2022/12/24 09:59:15;;;;;;;27.43;5.30;;;9.90;99.90;;;;;;463865;256;27939;-78
2022/12/24 10:01:16;;;;;;;21.10;4.63;;;10.00;99.90;;;;;;463792;256;27993;-77
2022/12/24 10:03:17;;;;;;;20.37;4.80;;;10.00;99.90;;;;;;463858;256;27838;-77
2022/12/24 10:05:19;;;;;;;15.07;4.17;;;10.00;99.90;;;;;;463854;256;27840;-77
2022/12/24 10:07:20;;;;;;;22.03;4.73;;;10.00;99.90;;;;;;463884;256;28037;-78
2022/12/24 10:09:21;;;;;;;28.87;6.10;;;10.00;99.90;;;;;;464051;256;27959;-79
2022/12/24 10:11:23;;;;;;;28.43;5.33;;;10.00;99.90;;;;;;463392;256;27823;-79
2022/12/24 10:13:24;;;;;;;29.20;5.73;;;9.90;99.90;;;;;;463847;256;28533;-78
2022/12/24 10:15:25;;;;;;;15.17;4.30;;;9.80;99.90;;;;;;463912;256;28507;-78
2022/12/24 10:17:26;;;;;;;26.83;5.13;;;9.90;99.90;;;;;;463918;256;28703;-80
2022/12/24 10:19:27;;;;;;;19.50;4.87;;;10.00;99.90;;;;;;463700;256;27650;-78
2022/12/24 10:21:29;;;;;;;27.60;4.77;;;10.00;99.90;;;;;;463805;256;28073;-80
2022/12/24 10:23:30;;;;;;;16.03;4.83;;;10.00;99.90;;;;;;463844;256;27967;-78
2022/12/24 10:25:31;;;;;;;34.80;5.23;;;10.10;99.90;;;;;;463698;256;27684;-78
2022/12/24 10:27:32;;;;;;;14.00;4.50;;;10.20;99.90;;;;;;463865;256;27841;-79
2022/12/24 10:29:34;;;;;;;16.50;4.47;;;10.30;99.90;;;;;;463938;256;27717;-73
2022/12/24 10:31:35;;;;;;;27.67;5.30;;;10.30;99.90;;;;;;463880;256;27993;-79
2022/12/24 10:33:37;;;;;;;20.53;5.13;;;10.30;99.90;;;;;;463846;256;28646;-78
2022/12/24 10:35:37;;;;;;;31.57;5.40;;;10.30;99.90;;;;;;461112;256;28251;-78
2022/12/24 10:37:39;;;;;;;23.57;5.47;;;10.30;99.90;;;;;;460707;258;28035;-76
2022/12/24 10:39:40;;;;;;;22.00;4.20;;;10.30;99.90;;;;;;460677;258;27975;-78